createdAt,value
2018-07-27T00:01:14.432Z,100249.17
2018-07-27T00:03:42.255Z,100254.05
2018-07-27T00:06:10.056Z,100251.02
2018-07-27T00:08:37.904Z,100251.66
2018-07-27T00:11:05.687Z,100241.31
2018-07-27T00:13:33.589Z,100236.89
2018-07-27T00:16:01.824Z,100237.28
2018-07-27T00:18:29.627Z,100234.34
2018-07-27T00:20:57.519Z,100234.97
2018-07-27T00:23:25.381Z,100234.58
2018-07-27T00:25:53.179Z,100234.38
2018-07-27T00:28:20.955Z,100233.38
2018-07-27T00:30:48.675Z,100237.66
2018-07-27T00:33:16.455Z,100235.72
2018-07-27T00:35:44.188Z,100231.49
2018-07-27T00:38:12.116Z,100237.34
2018-07-27T00:40:39.975Z,100237.52
2018-07-27T00:43:07.824Z,100235.09
2018-07-27T00:45:35.690Z,100232.24
2018-07-27T00:48:03.607Z,100237.08
2018-07-27T00:50:31.328Z,100235.47
2018-07-27T00:52:59.037Z,100235.63
2018-07-27T00:55:26.836Z,100230.20
2018-07-27T00:57:54.666Z,100234.95
2018-07-27T01:00:22.467Z,100236.83
2018-07-27T01:02:50.262Z,100238.55
2018-07-27T01:07:52.571Z,100231.48
2018-07-27T01:10:20.417Z,100228.94
2018-07-27T01:12:48.234Z,100228.45
2018-07-27T01:15:16.025Z,100228.25
2018-07-27T01:17:43.840Z,100223.83
2018-07-27T01:20:11.702Z,100224.23
2018-07-27T01:22:39.540Z,100222.33
2018-07-27T01:25:07.301Z,100222.33
2018-07-27T01:27:35.098Z,100221.75
2018-07-27T01:30:03.648Z,100222.41
2018-07-27T01:32:31.459Z,100218.91
2018-07-27T01:34:59.216Z,100211.59
2018-07-27T01:37:26.963Z,100218.31
2018-07-27T01:39:54.712Z,100211.07
2018-07-27T01:42:22.521Z,100217.38
2018-07-27T01:44:50.383Z,100213.50
2018-07-27T01:47:18.207Z,100212.19
2018-07-27T01:49:45.971Z,100213.70
2018-07-27T01:52:13.751Z,100215.59
2018-07-27T01:54:41.500Z,100210.51
2018-07-27T01:57:09.243Z,100215.22
2018-07-27T01:59:37.070Z,100215.14
2018-07-27T02:02:05.080Z,100219.23
2018-07-27T02:04:32.911Z,100215.83
2018-07-27T02:07:00.721Z,100211.78
2018-07-27T02:09:28.552Z,100209.69
2018-07-27T02:11:56.382Z,100210.31
2018-07-27T02:14:24.159Z,100207.94
2018-07-27T02:16:52.016Z,100213.34
2018-07-27T02:19:19.820Z,100211.45
2018-07-27T02:21:47.707Z,100217.31
2018-07-27T02:24:15.532Z,100214.41
2018-07-27T02:26:43.334Z,100213.47
2018-07-27T02:29:11.119Z,100212.39
2018-07-27T02:31:38.936Z,100199.95
2018-07-27T02:34:06.719Z,100208.42
2018-07-27T02:36:34.523Z,100202.73
2018-07-27T02:39:02.372Z,100201.45
2018-07-27T02:41:30.197Z,100203.21
2018-07-27T02:43:58.062Z,100201.45
2018-07-27T02:46:25.866Z,100209.34
2018-07-27T02:48:53.652Z,100206.27
2018-07-27T02:51:21.521Z,100202.97
2018-07-27T02:53:49.345Z,100208.98
2018-07-27T02:56:17.203Z,100209.63
2018-07-27T02:58:44.995Z,100202.72
2018-07-27T03:01:12.821Z,100202.22
2018-07-27T03:03:40.568Z,100200.45
2018-07-27T03:06:08.288Z,100198.23
2018-07-27T03:08:36.084Z,100194.42
2018-07-27T03:11:03.913Z,100187.55
2018-07-27T03:13:31.714Z,100186.34
2018-07-27T03:15:59.644Z,100192.91
2018-07-27T03:18:27.459Z,100187.52
2018-07-27T03:20:55.383Z,100196.11
2018-07-27T03:23:23.183Z,100188.28
2018-07-27T03:25:50.959Z,100194.09
2018-07-27T03:28:18.785Z,100189.67
2018-07-27T03:30:46.611Z,100190.84
2018-07-27T03:33:14.402Z,100196.16
2018-07-27T03:35:42.187Z,100194.77
2018-07-27T03:38:09.962Z,100197.23
2018-07-27T03:40:37.755Z,100197.19
2018-07-27T03:43:05.515Z,100196.37
2018-07-27T03:45:33.367Z,100199.72
2018-07-27T03:48:05.703Z,100187.00
2018-07-27T03:50:33.452Z,100190.98
2018-07-27T03:53:01.231Z,100184.33
2018-07-27T03:55:28.963Z,100189.39
2018-07-27T03:57:56.760Z,100191.98
2018-07-27T04:00:24.602Z,100182.94
2018-07-27T04:02:52.356Z,100180.80
2018-07-27T04:05:20.124Z,100180.30
2018-07-27T04:07:47.947Z,100179.73
2018-07-27T04:10:15.767Z,100184.19
2018-07-27T04:12:43.603Z,100179.48
2018-07-27T04:15:11.380Z,100180.13
2018-07-27T04:17:39.144Z,100187.00
2018-07-27T04:20:07.120Z,100180.95
2018-07-27T04:22:34.919Z,100183.41
2018-07-27T04:25:02.740Z,100184.47
2018-07-27T04:27:30.519Z,100186.44
2018-07-27T04:29:58.378Z,100185.78
2018-07-27T04:32:26.111Z,100191.17
2018-07-27T04:34:53.944Z,100196.41
2018-07-27T04:37:21.725Z,100191.80
2018-07-27T04:39:49.440Z,100194.02
2018-07-27T04:42:17.240Z,100192.05
2018-07-27T04:44:45.070Z,100192.02
2018-07-27T04:47:12.857Z,100188.59
2018-07-27T04:49:40.867Z,100187.34
2018-07-27T04:52:08.668Z,100183.06
2018-07-27T04:54:36.455Z,100187.93
2018-07-27T04:57:04.415Z,100192.05
2018-07-27T04:59:32.207Z,100193.03
2018-07-27T05:01:59.971Z,100183.25
2018-07-27T05:04:27.743Z,100191.48
2018-07-27T05:06:55.591Z,100189.64
2018-07-27T05:09:23.808Z,100186.86
2018-07-27T05:11:51.964Z,100185.71
2018-07-27T05:14:19.691Z,100184.55
2018-07-27T05:16:47.519Z,100185.52
2018-07-27T05:19:15.323Z,100186.98
2018-07-27T05:21:43.197Z,100181.70
2018-07-27T05:24:11.032Z,100185.30
2018-07-27T05:26:38.852Z,100179.73
2018-07-27T05:29:06.675Z,100181.87
2018-07-27T05:31:34.431Z,100182.86
2018-07-27T05:34:02.294Z,100185.73
2018-07-27T05:36:30.095Z,100193.55
2018-07-27T05:38:58.322Z,100198.16
2018-07-27T05:41:26.174Z,100202.45
2018-07-27T05:43:53.991Z,100205.26
2018-07-27T05:46:21.843Z,100199.05
2018-07-27T05:48:49.684Z,100201.78
2018-07-27T05:51:17.473Z,100199.87
2018-07-27T05:53:45.306Z,100199.84
2018-07-27T05:56:13.119Z,100201.19
2018-07-27T05:58:40.975Z,100200.94
2018-07-27T06:01:09.294Z,100193.84
2018-07-27T06:03:37.119Z,100192.89
2018-07-27T06:06:05.240Z,100194.47
2018-07-27T06:08:33.692Z,100193.72
2018-07-27T06:11:01.555Z,100196.09
2018-07-27T06:13:29.392Z,100203.23
2018-07-27T06:15:57.375Z,100201.06
2018-07-27T06:18:25.183Z,100205.66
2018-07-27T06:20:53.013Z,100200.73
2018-07-27T06:23:20.814Z,100206.55
2018-07-27T06:25:48.568Z,100204.95
2018-07-27T06:28:16.390Z,100205.61
2018-07-27T06:30:45.051Z,100197.70
2018-07-27T06:33:12.801Z,100198.11
2018-07-27T06:35:40.628Z,100199.30
2018-07-27T06:38:08.503Z,100208.41
2018-07-27T06:40:36.315Z,100206.72
2018-07-27T06:43:04.227Z,100204.29
2018-07-27T06:45:31.960Z,100204.02
2018-07-27T06:47:59.755Z,100204.05
2018-07-27T06:50:27.520Z,100214.02
2018-07-27T06:52:55.285Z,100216.72
2018-07-27T06:55:23.116Z,100211.56
2018-07-27T06:57:51.326Z,100213.85
2018-07-27T07:00:19.109Z,100214.28
2018-07-27T07:02:46.890Z,100212.80
2018-07-27T07:05:14.688Z,100220.06
2018-07-27T07:07:42.467Z,100219.74
2018-07-27T07:10:10.368Z,100215.84
2018-07-27T07:12:38.168Z,100214.05
2018-07-27T07:15:07.355Z,100217.31
2018-07-27T07:17:35.179Z,100204.33
2018-07-27T07:20:03.787Z,100207.48
2018-07-27T07:22:31.604Z,100203.17
2018-07-27T07:24:59.471Z,100198.38
2018-07-27T07:27:27.263Z,100195.63
2018-07-27T07:29:55.088Z,100197.54
2018-07-27T07:32:22.855Z,100198.88
2018-07-27T07:34:50.611Z,100200.75
2018-07-27T07:37:18.647Z,100195.72
2018-07-27T07:39:46.443Z,100194.02
2018-07-27T07:42:14.264Z,100188.04
2018-07-27T07:44:42.155Z,100190.14
2018-07-27T07:47:09.953Z,100186.29
2018-07-27T07:49:37.668Z,100185.06
2018-07-27T07:52:05.800Z,100184.03
2018-07-27T07:54:33.617Z,100185.02
2018-07-27T07:57:01.374Z,100184.25
2018-07-27T07:59:29.112Z,100185.28
2018-07-27T08:01:56.856Z,100180.46
2018-07-27T08:04:24.776Z,100183.20
2018-07-27T08:06:52.491Z,100177.57
2018-07-27T08:09:20.359Z,100180.09
2018-07-27T08:11:48.179Z,100178.73
2018-07-27T08:14:15.939Z,100177.71
2018-07-27T08:16:43.737Z,100164.95
2018-07-27T08:19:11.520Z,100167.48
2018-07-27T08:21:39.387Z,100165.09
2018-07-27T08:24:07.216Z,100165.02
2018-07-27T08:26:45.760Z,100160.32
2018-07-27T08:29:14.903Z,100161.48
2018-07-27T08:31:43.972Z,100151.26
2018-07-27T08:34:12.696Z,100150.44
2018-07-27T08:36:40.515Z,100153.81
2018-07-27T08:39:10.888Z,100155.00
2018-07-27T08:41:39.341Z,100149.58
2018-07-27T08:44:08.173Z,100145.25
2018-07-27T08:46:36.223Z,100143.86
2018-07-27T08:49:04.131Z,100130.59
2018-07-27T08:51:32.199Z,100139.16
2018-07-27T08:53:59.938Z,100135.77
2018-07-27T08:56:27.773Z,100137.85
2018-07-27T08:58:55.640Z,100131.38
2018-07-27T09:01:24.095Z,100124.82
2018-07-27T09:03:52.176Z,100128.27
2018-07-27T09:06:19.962Z,100123.67
2018-07-27T09:08:48.376Z,100124.70
2018-07-27T09:11:16.195Z,100124.22
2018-07-27T09:13:43.983Z,100118.23
2018-07-27T09:16:11.791Z,100120.45
2018-07-27T09:18:39.522Z,100120.88
2018-07-27T09:21:07.321Z,100117.74
2018-07-27T09:23:35.450Z,100121.14
2018-07-27T09:26:03.298Z,100117.95
2018-07-27T09:28:31.092Z,100112.17
2018-07-27T09:30:58.871Z,100109.95
2018-07-27T09:33:26.683Z,100109.66
2018-07-27T09:35:54.476Z,100107.80
2018-07-27T09:38:22.291Z,100107.88
2018-07-27T09:40:50.140Z,100109.77
2018-07-27T09:43:18.515Z,100100.68
2018-07-27T09:45:46.239Z,100107.40
2018-07-27T09:48:14.024Z,100106.20
2018-07-27T09:50:42.963Z,100105.14
2018-07-27T09:53:10.940Z,100103.44
2018-07-27T09:55:38.779Z,100101.03
2018-07-27T09:58:06.667Z,100106.38
2018-07-27T10:00:40.132Z,100094.13
2018-07-27T10:03:07.942Z,100090.16
2018-07-27T10:05:35.650Z,100091.53
2018-07-27T10:08:03.583Z,100083.40
2018-07-27T10:10:31.367Z,100088.02
2018-07-27T10:12:59.332Z,100077.37
2018-07-27T10:15:27.087Z,100074.52
2018-07-27T10:17:54.903Z,100074.03
2018-07-27T10:20:22.751Z,100077.87
2018-07-27T10:22:50.503Z,100078.39
2018-07-27T10:25:18.327Z,100076.56
2018-07-27T10:27:46.484Z,100089.11
2018-07-27T10:30:14.384Z,100074.67
2018-07-27T10:32:42.160Z,100066.77
2018-07-27T10:35:10.007Z,100066.72
2018-07-27T10:37:37.903Z,100062.38
2018-07-27T10:40:06.723Z,100047.41
2018-07-27T10:42:34.499Z,100048.94
2018-07-27T10:45:02.379Z,100050.95
2018-07-27T10:47:30.159Z,100046.83
2018-07-27T10:49:57.947Z,100046.09
2018-07-27T10:52:25.752Z,100043.02
2018-07-27T10:54:53.559Z,100035.05
2018-07-27T10:57:21.372Z,100033.63
2018-07-27T10:59:49.187Z,100019.80
2018-07-27T11:02:17.084Z,100022.77
2018-07-27T11:04:44.883Z,100027.36
2018-07-27T11:07:12.726Z,100013.67
2018-07-27T11:09:40.600Z,100021.33
2018-07-27T11:12:08.320Z,100011.38
2018-07-27T11:14:36.119Z,100007.75
2018-07-27T11:17:03.972Z,100006.30
2018-07-27T11:19:32.164Z,100011.41
2018-07-27T11:22:00.016Z,100002.19
2018-07-27T11:24:27.773Z,99996.11
2018-07-27T11:26:55.555Z,99996.81
2018-07-27T11:29:23.396Z,99994.34
2018-07-27T11:31:51.227Z,99991.48
2018-07-27T11:34:19.051Z,99994.34
2018-07-27T11:36:46.845Z,99986.73
2018-07-27T11:39:14.631Z,99995.44
2018-07-27T11:41:42.398Z,99985.10
2018-07-27T11:44:10.140Z,99985.83
2018-07-27T11:46:37.979Z,99989.75
2018-07-27T12:00:54.483Z,99971.88
2018-07-27T12:03:22.343Z,99976.86
2018-07-27T12:05:50.189Z,99968.97
2018-07-27T12:08:18.007Z,99958.73
2018-07-27T12:10:45.863Z,99967.64
2018-07-27T12:13:13.640Z,99964.39
2018-07-27T12:15:41.392Z,99956.11
2018-07-27T12:18:09.132Z,99952.94
2018-07-27T12:20:37.064Z,99945.70
2018-07-27T12:23:04.776Z,99942.31
2018-07-27T12:25:32.575Z,99942.03
2018-07-27T12:28:00.395Z,99947.43
2018-07-27T12:30:28.332Z,99944.50
2018-07-27T12:32:56.068Z,99944.28
2018-07-27T12:35:23.793Z,99933.42
2018-07-27T12:37:51.658Z,99938.17
2018-07-27T12:40:19.530Z,99942.23
2018-07-27T12:42:47.276Z,99933.69
2018-07-27T12:45:15.122Z,99931.02
2018-07-27T12:47:42.920Z,99925.39
2018-07-27T12:50:10.975Z,99928.22
2018-07-27T12:52:38.742Z,99917.95
2018-07-27T12:55:06.751Z,99922.06
2018-07-27T12:57:34.616Z,99919.96
2018-07-27T13:00:02.407Z,99920.16
2018-07-27T13:02:30.179Z,99910.31
2018-07-27T13:04:57.964Z,99908.30
2018-07-27T13:07:25.750Z,99903.58
2018-07-27T13:09:58.092Z,99901.63
2018-07-27T13:12:25.859Z,99903.42
2018-07-27T13:14:53.627Z,99905.39
2018-07-27T13:17:21.377Z,99892.72
2018-07-27T13:19:49.192Z,99890.78
2018-07-27T13:22:17.064Z,99897.38
2018-07-27T13:24:59.730Z,99896.06
2018-07-27T13:27:12.573Z,99881.70
2018-07-27T13:29:40.376Z,99880.39
2018-07-27T13:34:55.316Z,99873.27
2018-07-27T13:37:25.403Z,99870.25
2018-07-27T13:42:24.427Z,99857.70
2018-07-27T13:44:52.238Z,99857.30
2018-07-27T13:47:20.161Z,99847.45
2018-07-27T13:49:48.020Z,99850.59
2018-07-27T13:52:15.883Z,99847.80
2018-07-27T13:54:43.693Z,99839.64
2018-07-27T13:57:11.572Z,99848.16
2018-07-27T13:59:39.811Z,99847.63
2018-07-27T14:02:08.068Z,99841.39
2018-07-27T14:04:35.927Z,99839.92
2018-07-27T14:07:04.770Z,99837.70
2018-07-27T14:09:32.574Z,99840.86
2018-07-27T14:12:00.488Z,99833.16
2018-07-27T14:14:28.354Z,99829.97
2018-07-27T14:16:56.171Z,99820.69
2018-07-27T14:19:24.680Z,99813.98
2018-07-27T14:21:52.565Z,99815.95
2018-07-27T14:24:20.380Z,99810.16
2018-07-27T14:26:48.182Z,99810.95
2018-07-27T14:29:16.057Z,99809.18
2018-07-27T14:31:43.771Z,99809.84
2018-07-27T14:34:11.550Z,99809.55
2018-07-27T14:36:39.595Z,99806.23
2018-07-27T14:39:09.073Z,99794.72
2018-07-27T14:41:37.029Z,99800.38
2018-07-27T14:44:04.831Z,99799.39
2018-07-27T14:46:32.813Z,99793.86
2018-07-27T14:49:00.563Z,99792.26
2018-07-27T14:51:28.719Z,99785.75
2018-07-27T14:53:56.713Z,99790.67
2018-07-27T14:56:24.503Z,99785.64
2018-07-27T14:58:52.329Z,99779.75
2018-07-27T15:01:20.127Z,99782.03
2018-07-27T15:03:47.896Z,99780.21
2018-07-27T15:06:15.697Z,99776.11
2018-07-27T15:08:43.575Z,99781.72
2018-07-27T15:11:11.349Z,99773.89
2018-07-27T15:13:39.183Z,99774.92
2018-07-27T15:16:06.975Z,99769.92
2018-07-27T15:18:34.744Z,99763.83
2018-07-27T15:21:02.530Z,99766.45
2018-07-27T15:23:30.353Z,99764.66
2018-07-27T15:25:58.139Z,99764.07
2018-07-27T15:28:26.018Z,99755.27
2018-07-27T15:30:53.800Z,99751.16
2018-07-27T15:33:21.520Z,99750.27
2018-07-27T15:35:49.287Z,99746.89
2018-07-27T15:38:17.055Z,99746.58
2018-07-27T15:40:44.900Z,99741.10
2018-07-27T15:43:12.689Z,99744.16
2018-07-27T15:45:40.487Z,99745.27
2018-07-27T15:48:08.347Z,99747.64
2018-07-27T15:50:36.130Z,99744.56
2018-07-27T15:53:03.999Z,99745.73
2018-07-27T15:55:31.861Z,99748.13
2018-07-27T15:58:01.411Z,99739.31
2018-07-27T16:00:29.182Z,99740.07
2018-07-27T16:02:57.031Z,99739.68
2018-07-27T16:05:24.808Z,99732.78
2018-07-27T16:07:52.601Z,99735.63
2018-07-27T16:10:20.457Z,99731.30
2018-07-27T16:12:48.284Z,99726.84
2018-07-27T16:15:16.083Z,99727.53
2018-07-27T16:17:43.872Z,99726.93
2018-07-27T16:20:11.651Z,99720.44
2018-07-27T16:22:39.567Z,99721.77
2018-07-27T16:25:07.449Z,99723.15
2018-07-27T16:27:35.255Z,99713.41
2018-07-27T16:30:03.305Z,99714.07
2018-07-27T16:32:31.147Z,99715.76
2018-07-27T16:34:58.980Z,99706.98
2018-07-27T16:37:26.799Z,99708.86
2018-07-27T16:39:54.687Z,99715.44
2018-07-27T16:42:22.435Z,99712.39
2018-07-27T16:44:50.232Z,99706.02
2018-07-27T16:47:18.075Z,99705.69
2018-07-27T16:49:45.900Z,99709.59
2018-07-27T16:52:13.719Z,99707.81
2018-07-27T16:54:41.608Z,99710.88
2018-07-27T16:57:09.405Z,99709.09
2018-07-27T16:59:37.471Z,99707.95
2018-07-27T17:02:05.275Z,99704.12
2018-07-27T17:04:33.040Z,99708.19
2018-07-27T17:07:01.077Z,99709.89
2018-07-27T17:09:28.911Z,99712.14
2018-07-27T17:11:56.698Z,99703.48
2018-07-27T17:14:24.467Z,99707.94
2018-07-27T17:16:52.259Z,99713.28
2018-07-27T17:19:20.061Z,99703.92
2018-07-27T17:21:47.861Z,99707.59
2018-07-27T17:24:15.737Z,99707.89
2018-07-27T17:26:43.569Z,99709.33
2018-07-27T17:29:11.311Z,99717.23
2018-07-27T17:31:39.103Z,99708.17
2018-07-27T17:34:06.875Z,99708.67
2018-07-27T17:36:34.720Z,99706.27
2018-07-27T17:39:02.886Z,99703.81
2018-07-27T17:41:30.707Z,99703.10
2018-07-27T17:43:58.495Z,99698.72
2018-07-27T17:46:26.287Z,99702.14
2018-07-27T17:48:54.155Z,99703.44
2018-07-27T17:51:21.971Z,99698.80
2018-07-27T17:53:49.851Z,99705.98
2018-07-27T17:56:17.723Z,99705.66
2018-07-27T17:58:45.518Z,99707.52
2018-07-27T18:01:13.297Z,99707.58
2018-07-27T18:03:41.083Z,99709.05
2018-07-27T18:06:08.860Z,99713.73
2018-07-27T18:08:36.651Z,99707.27
2018-07-27T18:11:04.451Z,99705.92
2018-07-27T18:13:32.262Z,99704.94
2018-07-27T18:16:00.035Z,99717.55
2018-07-27T18:18:27.791Z,99726.06
2018-07-27T18:20:55.576Z,99730.74
2018-07-27T18:23:23.387Z,99730.58
2018-07-27T18:25:51.226Z,99729.22
2018-07-27T18:28:19.027Z,99731.88
2018-07-27T18:30:46.906Z,99736.94
2018-07-27T18:33:14.700Z,99731.50
2018-07-27T18:35:42.508Z,99731.08
2018-07-27T18:38:10.343Z,99734.55
2018-07-27T18:40:38.088Z,99733.34
2018-07-27T18:43:05.917Z,99731.55
2018-07-27T18:45:33.777Z,99733.96
2018-07-27T18:48:01.577Z,99733.13
2018-07-27T18:50:29.464Z,99735.55
2018-07-27T18:52:57.257Z,99731.50
2018-07-27T18:55:25.113Z,99728.27
2018-07-27T18:57:52.911Z,99725.63
2018-07-27T19:00:20.680Z,99724.97
2018-07-27T19:02:48.515Z,99734.05
2018-07-27T19:05:16.237Z,99726.17
2018-07-27T19:07:44.075Z,99729.97
2018-07-27T19:10:11.931Z,99723.88
2018-07-27T19:12:39.710Z,99728.90
2018-07-27T19:15:08.299Z,99731.01
2018-07-27T19:17:36.228Z,99736.02
2018-07-27T19:20:04.358Z,99736.83
2018-07-27T19:22:32.215Z,99746.64
2018-07-27T19:25:00.024Z,99751.45
2018-07-27T19:27:27.836Z,99749.75
2018-07-27T19:29:55.621Z,99748.63
2018-07-27T19:32:23.374Z,99747.96
2018-07-27T19:34:51.216Z,99749.72
2018-07-27T19:37:18.980Z,99751.53
2018-07-27T19:39:46.766Z,99748.51
2018-07-27T19:42:14.583Z,99755.61
2018-07-27T19:44:42.319Z,99757.72
2018-07-27T19:47:10.124Z,99748.75
2018-07-27T19:49:38.010Z,99752.66
2018-07-27T19:52:05.969Z,99757.14
2018-07-27T19:54:33.944Z,99755.88
2018-07-27T19:57:01.675Z,99757.40
2018-07-27T19:59:29.458Z,99757.89
2018-07-27T20:01:57.244Z,99758.34
2018-07-27T20:04:25.029Z,99758.86
2018-07-27T20:06:52.876Z,99755.70
2018-07-27T20:09:20.705Z,99755.80
2018-07-27T20:11:48.491Z,99756.11
2018-07-27T20:14:16.270Z,99759.45
2018-07-27T20:16:44.083Z,99764.66
2018-07-27T20:19:11.883Z,99764.56
2018-07-27T20:21:39.915Z,99762.95
2018-07-27T20:24:07.671Z,99765.25
2018-07-27T20:26:35.478Z,99769.95
2018-07-27T20:29:03.380Z,99764.14
2018-07-27T20:31:31.118Z,99764.22
2018-07-27T20:33:58.971Z,99761.02
2018-07-27T20:36:26.818Z,99761.71
2018-07-27T20:38:54.767Z,99753.90
2018-07-27T20:41:22.832Z,99762.20
2018-07-27T20:43:50.767Z,99763.05
2018-07-27T20:46:18.524Z,99760.11
2018-07-27T20:48:46.416Z,99763.87
2018-07-27T20:51:14.291Z,99763.03
2018-07-27T20:53:42.075Z,99761.88
2018-07-27T20:56:09.808Z,99764.11
2018-07-27T20:58:37.629Z,99754.52
2018-07-27T21:01:05.426Z,99760.48
2018-07-27T21:03:33.304Z,99757.80
2018-07-27T21:06:01.131Z,99759.66
2018-07-27T21:08:28.903Z,99758.26
2018-07-27T21:10:56.696Z,99763.37
2018-07-27T21:13:24.556Z,99756.20
2018-07-27T21:15:52.387Z,99758.19
2018-07-27T21:18:20.235Z,99758.18
2018-07-27T21:20:47.983Z,99761.73
2018-07-27T21:23:15.810Z,99756.55
2018-07-27T21:25:43.640Z,99762.02
2018-07-27T21:28:11.392Z,99759.72
2018-07-27T21:30:39.211Z,99762.27
2018-07-27T21:33:06.995Z,99761.05
2018-07-27T21:35:34.779Z,99764.87
2018-07-27T21:38:03.010Z,99768.55
2018-07-27T21:40:30.904Z,99772.35
2018-07-27T21:42:58.726Z,99766.41
2018-07-27T21:45:26.599Z,99767.79
2018-07-27T21:47:54.453Z,99762.06
2018-07-27T21:50:22.207Z,99768.60
2018-07-27T21:52:50.156Z,99763.65
2018-07-27T21:55:18.163Z,99769.06
2018-07-27T21:57:45.990Z,99761.09
2018-07-27T22:00:14.256Z,99766.09
2018-07-27T22:02:42.313Z,99762.42
2018-07-27T22:05:10.180Z,99765.18
2018-07-27T22:07:37.979Z,99761.55
2018-07-27T22:10:05.920Z,99760.97
2018-07-27T22:12:33.752Z,99766.94
2018-07-27T22:15:01.581Z,99764.41
2018-07-27T22:17:29.385Z,99766.71
2018-07-27T22:19:57.435Z,99762.14
2018-07-27T22:22:25.283Z,99756.56
2018-07-27T22:24:53.945Z,99764.66
2018-07-27T22:27:21.924Z,99759.08
2018-07-27T22:29:50.145Z,99768.03
2018-07-27T22:32:18.028Z,99761.71
2018-07-27T22:34:48.674Z,99766.64
2018-07-27T22:37:16.619Z,99762.77
2018-07-27T22:39:44.404Z,99755.44
2018-07-27T22:42:12.314Z,99756.14
2018-07-27T22:44:40.162Z,99757.89
2018-07-27T22:47:07.959Z,99754.42
2018-07-27T22:49:35.697Z,99754.19
2018-07-27T22:52:03.593Z,99745.90
2018-07-27T22:54:32.066Z,99746.63
2018-07-27T22:57:00.856Z,99747.00
2018-07-27T22:59:30.117Z,99749.80
2018-07-27T23:01:58.041Z,99754.80
2018-07-27T23:04:25.747Z,99755.39
2018-07-27T23:06:53.527Z,99762.02
2018-07-27T23:09:21.325Z,99752.82
2018-07-27T23:11:50.319Z,99748.98
2018-07-27T23:14:18.154Z,99747.45
2018-07-27T23:16:46.019Z,99745.83
2018-07-27T23:19:13.913Z,99741.86
2018-07-27T23:21:41.711Z,99739.16
2018-07-27T23:24:09.505Z,99741.63
2018-07-27T23:26:37.346Z,99745.09
2018-07-27T23:29:05.219Z,99737.29
2018-07-27T23:31:33.012Z,99740.09
2018-07-27T23:34:00.891Z,99737.52
2018-07-27T23:36:28.773Z,99734.24
2018-07-27T23:38:56.651Z,99730.61
2018-07-27T23:41:24.533Z,99726.23
2018-07-27T23:43:52.317Z,99716.88
2018-07-27T23:46:20.121Z,99714.79
2018-07-27T23:48:47.927Z,99710.94
2018-07-27T23:51:15.731Z,99718.13
2018-07-27T23:53:43.500Z,99714.67
2018-07-27T23:56:11.350Z,99710.49
2018-07-27T23:58:39.132Z,99707.39
